sensor_id;sensor_type;location;lat;lon;timestamp;pressure;altitude;pressure_sealevel;temperature
53412;BMP280;39307;52.870;13.660;2022-08-19T00:01:30;100367.69;;;21.20
53412;BMP280;39307;52.870;13.660;2022-08-19T00:04:02;100372.75;;;21.21
53412;BMP280;39307;52.870;13.660;2022-08-19T00:06:29;100358.91;;;21.19
53412;BMP280;39307;52.870;13.660;2022-08-19T00:08:57;100363.16;;;21.20
53412;BMP280;39307;52.870;13.660;2022-08-19T00:11:24;100363.72;;;21.27
53412;BMP280;39307;52.870;13.660;2022-08-19T00:13:51;100366.06;;;21.19
53412;BMP280;39307;52.870;13.660;2022-08-19T00:16:17;100367.94;;;21.18
53412;BMP280;39307;52.870;13.660;2022-08-19T00:18:44;100363.91;;;21.16
53412;BMP280;39307;52.870;13.660;2022-08-19T00:21:10;100365.78;;;21.11
53412;BMP280;39307;52.870;13.660;2022-08-19T00:23:36;100363.13;;;21.15
53412;BMP280;39307;52.870;13.660;2022-08-19T00:26:04;100363.41;;;21.14
53412;BMP280;39307;52.870;13.660;2022-08-19T00:28:31;100360.69;;;21.09
53412;BMP280;39307;52.870;13.660;2022-08-19T00:30:57;100363.63;;;21.08
53412;BMP280;39307;52.870;13.660;2022-08-19T00:33:24;100369.47;;;21.10
53412;BMP280;39307;52.870;13.660;2022-08-19T00:35:50;100375.88;;;21.09
53412;BMP280;39307;52.870;13.660;2022-08-19T00:38:17;100370.56;;;21.09
53412;BMP280;39307;52.870;13.660;2022-08-19T00:40:44;100368.44;;;21.11
53412;BMP280;39307;52.870;13.660;2022-08-19T00:43:11;100373.75;;;21.11
53412;BMP280;39307;52.870;13.660;2022-08-19T00:45:37;100382.25;;;21.08
53412;BMP280;39307;52.870;13.660;2022-08-19T00:48:04;100379.84;;;21.06
53412;BMP280;39307;52.870;13.660;2022-08-19T00:50:30;100385.97;;;21.07
53412;BMP280;39307;52.870;13.660;2022-08-19T00:52:57;100390.75;;;21.05
53412;BMP280;39307;52.870;13.660;2022-08-19T00:55:26;100389.41;;;21.07
53412;BMP280;39307;52.870;13.660;2022-08-19T00:57:58;100402.22;;;21.10
53412;BMP280;39307;52.870;13.660;2022-08-19T01:00:27;100395.06;;;21.11
53412;BMP280;39307;52.870;13.660;2022-08-19T01:02:56;100397.97;;;21.09
53412;BMP280;39307;52.870;13.660;2022-08-19T01:05:26;100400.91;;;21.08
53412;BMP280;39307;52.870;13.660;2022-08-19T01:07:57;100392.34;;;21.06
53412;BMP280;39307;52.870;13.660;2022-08-19T01:10:27;100395.25;;;21.04
53412;BMP280;39307;52.870;13.660;2022-08-19T01:12:55;100408.03;;;21.02
53412;BMP280;39307;52.870;13.660;2022-08-19T01:15:26;100398.75;;;21.05
53412;BMP280;39307;52.870;13.660;2022-08-19T01:17:55;100394.72;;;21.02
53412;BMP280;39307;52.870;13.660;2022-08-19T01:20:23;100400.81;;;20.98
53412;BMP280;39307;52.870;13.660;2022-08-19T01:22:56;100393.09;;;20.96
53412;BMP280;39307;52.870;13.660;2022-08-19T01:25:35;100387.25;;;20.99
53412;BMP280;39307;52.870;13.660;2022-08-19T01:28:03;100384.03;;;20.97
53412;BMP280;39307;52.870;13.660;2022-08-19T01:30:33;100384.56;;;20.94
53412;BMP280;39307;52.870;13.660;2022-08-19T01:33:01;100394.41;;;20.94
53412;BMP280;39307;52.870;13.660;2022-08-19T01:35:29;100391.00;;;20.98
53412;BMP280;39307;52.870;13.660;2022-08-19T01:38:02;100393.91;;;20.97
53412;BMP280;39307;52.870;13.660;2022-08-19T01:40:31;100388.56;;;20.97
53412;BMP280;39307;52.870;13.660;2022-08-19T01:42:58;100386.19;;;20.95
53412;BMP280;39307;52.870;13.660;2022-08-19T01:45:28;100387.25;;;20.99
53412;BMP280;39307;52.870;13.660;2022-08-19T01:47:57;100385.66;;;20.98
53412;BMP280;39307;52.870;13.660;2022-08-19T01:50:24;100398.38;;;20.91
53412;BMP280;39307;52.870;13.660;2022-08-19T01:52:51;100400.75;;;20.88
53412;BMP280;39307;52.870;13.660;2022-08-19T01:55:20;100398.88;;;20.88
53412;BMP280;39307;52.870;13.660;2022-08-19T01:57:52;100402.06;;;20.85
53412;BMP280;39307;52.870;13.660;2022-08-19T02:00:23;100394.63;;;20.87
53412;BMP280;39307;52.870;13.660;2022-08-19T02:02:49;100401.81;;;20.87
53412;BMP280;39307;52.870;13.660;2022-08-19T02:05:16;100404.47;;;20.87
53412;BMP280;39307;52.870;13.660;2022-08-19T02:07:43;100400.19;;;20.86
53412;BMP280;39307;52.870;13.660;2022-08-19T02:10:13;100391.69;;;20.84
53412;BMP280;39307;52.870;13.660;2022-08-19T02:12:40;100370.69;;;20.87
53412;BMP280;39307;52.870;13.660;2022-08-19T02:15:07;100380.03;;;20.95
53412;BMP280;39307;52.870;13.660;2022-08-19T02:17:33;100373.97;;;20.99
53412;BMP280;39307;52.870;13.660;2022-08-19T02:20:00;100383.56;;;21.05
53412;BMP280;39307;52.870;13.660;2022-08-19T02:22:29;100369.19;;;21.06
53412;BMP280;39307;52.870;13.660;2022-08-19T02:24:55;100362.25;;;21.00
53412;BMP280;39307;52.870;13.660;2022-08-19T02:27:22;100363.03;;;21.01
53412;BMP280;39307;52.870;13.660;2022-08-19T02:29:50;100373.41;;;20.92
53412;BMP280;39307;52.870;13.660;2022-08-19T02:32:17;100371.53;;;20.93
53412;BMP280;39307;52.870;13.660;2022-08-19T02:34:43;100368.91;;;21.03
53412;BMP280;39307;52.870;13.660;2022-08-19T02:37:09;100359.84;;;20.99
53412;BMP280;39307;52.870;13.660;2022-08-19T02:39:36;100347.59;;;20.98
53412;BMP280;39307;52.870;13.660;2022-08-19T02:42:02;100349.44;;;20.92
53412;BMP280;39307;52.870;13.660;2022-08-19T02:44:29;100349.91;;;20.84
53412;BMP280;39307;52.870;13.660;2022-08-19T02:46:55;100367.47;;;20.81
53412;BMP280;39307;52.870;13.660;2022-08-19T02:49:21;100366.41;;;20.82
53412;BMP280;39307;52.870;13.660;2022-08-19T02:51:47;100362.13;;;20.81
53412;BMP280;39307;52.870;13.660;2022-08-19T02:54:14;100358.38;;;20.77
53412;BMP280;39307;52.870;13.660;2022-08-19T02:56:42;100365.56;;;20.76
53412;BMP280;39307;52.870;13.660;2022-08-19T02:59:08;100350.16;;;20.78
53412;BMP280;39307;52.870;13.660;2022-08-19T03:01:35;100347.81;;;20.86
53412;BMP280;39307;52.870;13.660;2022-08-19T03:04:05;100346.47;;;20.84
53412;BMP280;39307;52.870;13.660;2022-08-19T03:06:33;100353.59;;;20.79
53412;BMP280;39307;52.870;13.660;2022-08-19T03:09:02;100338.44;;;20.79
53412;BMP280;39307;52.870;13.660;2022-08-19T03:11:30;100349.06;;;20.79
53412;BMP280;39307;52.870;13.660;2022-08-19T03:13:58;100344.81;;;20.78
53412;BMP280;39307;52.870;13.660;2022-08-19T03:16:26;100340.31;;;20.79
53412;BMP280;39307;52.870;13.660;2022-08-19T03:18:53;100344.56;;;20.80
53412;BMP280;39307;52.870;13.660;2022-08-19T03:21:25;100340.97;;;21.00
53412;BMP280;39307;52.870;13.660;2022-08-19T03:23:55;100357.63;;;20.86
53412;BMP280;39307;52.870;13.660;2022-08-19T03:26:22;100361.84;;;20.77
53412;BMP280;39307;52.870;13.660;2022-08-19T03:28:50;100356.22;;;20.69
53412;BMP280;39307;52.870;13.660;2022-08-19T03:31:19;100361.75;;;20.67
53412;BMP280;39307;52.870;13.660;2022-08-19T03:33:47;100347.16;;;20.70
53412;BMP280;39307;52.870;13.660;2022-08-19T03:36:16;100346.41;;;20.79
53412;BMP280;39307;52.870;13.660;2022-08-19T03:38:44;100345.63;;;20.79
53412;BMP280;39307;52.870;13.660;2022-08-19T03:41:22;100344.03;;;20.78
53412;BMP280;39307;52.870;13.660;2022-08-19T03:43:50;100340.25;;;20.74
53412;BMP280;39307;52.870;13.660;2022-08-19T03:46:20;100354.63;;;20.73
53412;BMP280;39307;52.870;13.660;2022-08-19T03:48:48;100342.41;;;20.77
53412;BMP280;39307;52.870;13.660;2022-08-19T03:51:20;100340.53;;;20.72
53412;BMP280;39307;52.870;13.660;2022-08-19T03:53:47;100345.00;;;20.67
53412;BMP280;39307;52.870;13.660;2022-08-19T03:56:14;100348.19;;;20.64
53412;BMP280;39307;52.870;13.660;2022-08-19T03:58:41;100352.16;;;20.61
53412;BMP280;39307;52.870;13.660;2022-08-19T04:01:14;100355.03;;;20.55
53412;BMP280;39307;52.870;13.660;2022-08-19T04:03:41;100371.66;;;20.41
53412;BMP280;39307;52.870;13.660;2022-08-19T04:06:19;100370.47;;;20.27
53412;BMP280;39307;52.870;13.660;2022-08-19T04:08:47;100376.06;;;20.25
53412;BMP280;39307;52.870;13.660;2022-08-19T04:11:16;100380.84;;;20.28
53412;BMP280;39307;52.870;13.660;2022-08-19T04:13:44;100372.88;;;20.28
53412;BMP280;39307;52.870;13.660;2022-08-19T04:16:11;100369.25;;;20.39
53412;BMP280;39307;52.870;13.660;2022-08-19T04:18:38;100372.06;;;20.28
53412;BMP280;39307;52.870;13.660;2022-08-19T04:21:06;100371.25;;;20.27
53412;BMP280;39307;52.870;13.660;2022-08-19T04:23:34;100361.13;;;20.24
53412;BMP280;39307;52.870;13.660;2022-08-19T04:26:01;100370.13;;;20.19
53412;BMP280;39307;52.870;13.660;2022-08-19T04:28:27;100364.78;;;20.19
53412;BMP280;39307;52.870;13.660;2022-08-19T04:30:55;100375.94;;;20.16
53412;BMP280;39307;52.870;13.660;2022-08-19T04:33:24;100373.56;;;20.19
53412;BMP280;39307;52.870;13.660;2022-08-19T04:35:52;100372.56;;;20.25
53412;BMP280;39307;52.870;13.660;2022-08-19T04:38:21;100380.59;;;20.30
53412;BMP280;39307;52.870;13.660;2022-08-19T04:40:49;100379.59;;;20.36
53412;BMP280;39307;52.870;13.660;2022-08-19T04:43:16;100369.50;;;20.38
53412;BMP280;39307;52.870;13.660;2022-08-19T04:45:44;100377.16;;;20.34
53412;BMP280;39307;52.870;13.660;2022-08-19T04:48:11;100382.97;;;20.31
53412;BMP280;39307;52.870;13.660;2022-08-19T04:50:42;100386.75;;;20.35
53412;BMP280;39307;52.870;13.660;2022-08-19T04:53:09;100386.69;;;20.30
53412;BMP280;39307;52.870;13.660;2022-08-19T04:55:40;100381.69;;;20.34
53412;BMP280;39307;52.870;13.660;2022-08-19T04:58:06;100385.47;;;20.43
53412;BMP280;39307;52.870;13.660;2022-08-19T05:00:32;100379.13;;;20.44
53412;BMP280;39307;52.870;13.660;2022-08-19T05:02:59;100377.28;;;20.49
53412;BMP280;39307;52.870;13.660;2022-08-19T05:05:25;100365.66;;;20.55
53412;BMP280;39307;52.870;13.660;2022-08-19T05:07:51;100357.19;;;20.58
53412;BMP280;39307;52.870;13.660;2022-08-19T05:10:18;100353.44;;;20.54
53412;BMP280;39307;52.870;13.660;2022-08-19T05:12:44;100340.19;;;20.59
53412;BMP280;39307;52.870;13.660;2022-08-19T05:15:11;100331.91;;;20.55
53412;BMP280;39307;52.870;13.660;2022-08-19T05:17:37;100329.13;;;20.41
53412;BMP280;39307;52.870;13.660;2022-08-19T05:20:04;100319.56;;;20.45
53412;BMP280;39307;52.870;13.660;2022-08-19T05:22:31;100316.91;;;20.45
53412;BMP280;39307;52.870;13.660;2022-08-19T05:24:57;100301.38;;;20.63
53412;BMP280;39307;52.870;13.660;2022-08-19T05:27:24;100307.25;;;20.70
53412;BMP280;39307;52.870;13.660;2022-08-19T05:29:50;100303.00;;;20.69
53412;BMP280;39307;52.870;13.660;2022-08-19T05:32:16;100313.09;;;20.67
53412;BMP280;39307;52.870;13.660;2022-08-19T05:34:42;100305.38;;;20.65
53412;BMP280;39307;52.870;13.660;2022-08-19T05:37:09;100308.00;;;20.60
53412;BMP280;39307;52.870;13.660;2022-08-19T05:39:37;100310.38;;;20.57
53412;BMP280;39307;52.870;13.660;2022-08-19T05:42:07;100305.13;;;20.67
53412;BMP280;39307;52.870;13.660;2022-08-19T05:44:39;100298.81;;;20.78
53412;BMP280;39307;52.870;13.660;2022-08-19T05:47:07;100296.66;;;20.80
53412;BMP280;39307;52.870;13.660;2022-08-19T05:49:34;100297.69;;;20.69
53412;BMP280;39307;52.870;13.660;2022-08-19T05:52:05;100296.16;;;20.83
53412;BMP280;39307;52.870;13.660;2022-08-19T05:54:33;100296.66;;;20.80
53412;BMP280;39307;52.870;13.660;2022-08-19T05:57:01;100288.00;;;20.99
53412;BMP280;39307;52.870;13.660;2022-08-19T05:59:27;100285.91;;;21.06
53412;BMP280;39307;52.870;13.660;2022-08-19T06:01:54;100288.56;;;21.06
53412;BMP280;39307;52.870;13.660;2022-08-19T06:04:21;100301.03;;;21.00
53412;BMP280;39307;52.870;13.660;2022-08-19T06:06:50;100306.63;;;20.99
53412;BMP280;39307;52.870;13.660;2022-08-19T06:09:18;100312.00;;;21.09
53412;BMP280;39307;52.870;13.660;2022-08-19T06:11:51;100315.22;;;21.15
53412;BMP280;39307;52.870;13.660;2022-08-19T06:14:20;100299.56;;;21.24
53412;BMP280;39307;52.870;13.660;2022-08-19T06:16:48;100292.16;;;21.36
53412;BMP280;39307;52.870;13.660;2022-08-19T06:19:17;100287.94;;;21.44
53412;BMP280;39307;52.870;13.660;2022-08-19T06:21:46;100291.16;;;21.61
53412;BMP280;39307;52.870;13.660;2022-08-19T06:24:15;100298.91;;;21.82
53412;BMP280;39307;52.870;13.660;2022-08-19T06:26:46;100304.50;;;21.76
53412;BMP280;39307;52.870;13.660;2022-08-19T06:29:15;100299.72;;;21.73
53412;BMP280;39307;52.870;13.660;2022-08-19T06:31:48;100310.63;;;21.71
53412;BMP280;39307;52.870;13.660;2022-08-19T06:34:15;100309.84;;;21.86
53412;BMP280;39307;52.870;13.660;2022-08-19T06:36:45;100316.53;;;21.83
53412;BMP280;39307;52.870;13.660;2022-08-19T06:39:15;100309.31;;;21.89
53412;BMP280;39307;52.870;13.660;2022-08-19T06:41:45;100297.06;;;21.98
53412;BMP280;39307;52.870;13.660;2022-08-19T06:44:13;100300.28;;;21.99
53412;BMP280;39307;52.870;13.660;2022-08-19T06:46:40;100302.94;;;21.99
53412;BMP280;39307;52.870;13.660;2022-08-19T06:49:08;100305.38;;;22.06
53412;BMP280;39307;52.870;13.660;2022-08-19T06:51:34;100313.63;;;22.04
53412;BMP280;39307;52.870;13.660;2022-08-19T06:54:01;100318.44;;;22.07
53412;BMP280;39307;52.870;13.660;2022-08-19T06:56:29;100325.34;;;22.13
53412;BMP280;39307;52.870;13.660;2022-08-19T06:58:57;100315.75;;;22.22
53412;BMP280;39307;52.870;13.660;2022-08-19T07:01:24;100315.78;;;22.12
53412;BMP280;39307;52.870;13.660;2022-08-19T07:03:50;100318.69;;;22.06
53412;BMP280;39307;52.870;13.660;2022-08-19T07:06:17;100319.50;;;22.11
53412;BMP280;39307;52.870;13.660;2022-08-19T07:08:45;100327.50;;;22.16
53412;BMP280;39307;52.870;13.660;2022-08-19T07:11:13;100325.38;;;22.23
53412;BMP280;39307;52.870;13.660;2022-08-19T07:13:40;100329.66;;;22.29
53412;BMP280;39307;52.870;13.660;2022-08-19T07:16:07;100323.25;;;22.30
53412;BMP280;39307;52.870;13.660;2022-08-19T07:18:34;100323.25;;;22.35
53412;BMP280;39307;52.870;13.660;2022-08-19T07:21:13;100321.88;;;22.52
53412;BMP280;39307;52.870;13.660;2022-08-19T07:23:40;100324.81;;;22.51
53412;BMP280;39307;52.870;13.660;2022-08-19T07:26:17;100329.63;;;22.49
53412;BMP280;39307;52.870;13.660;2022-08-19T07:28:46;100325.38;;;22.48
53412;BMP280;39307;52.870;13.660;2022-08-19T07:31:14;100337.09;;;22.47
53412;BMP280;39307;52.870;13.660;2022-08-19T07:33:41;100322.41;;;22.49
53412;BMP280;39307;52.870;13.660;2022-08-19T07:36:09;100334.69;;;22.60
53412;BMP280;39307;52.870;13.660;2022-08-19T07:38:35;100335.78;;;22.44
53412;BMP280;39307;52.870;13.660;2022-08-19T07:41:01;100338.16;;;22.46
53412;BMP280;39307;52.870;13.660;2022-08-19T07:43:28;100349.13;;;22.44
53412;BMP280;39307;52.870;13.660;2022-08-19T07:45:55;100360.56;;;22.40
53412;BMP280;39307;52.870;13.660;2022-08-19T07:48:26;100367.22;;;22.37
53412;BMP280;39307;52.870;13.660;2022-08-19T07:50:53;100375.22;;;22.37
53412;BMP280;39307;52.870;13.660;2022-08-19T07:53:23;100369.91;;;22.32
53412;BMP280;39307;52.870;13.660;2022-08-19T07:55:50;100368.06;;;22.38
53412;BMP280;39307;52.870;13.660;2022-08-19T07:58:21;100376.84;;;22.48
53412;BMP280;39307;52.870;13.660;2022-08-19T08:00:49;100370.69;;;22.53
53412;BMP280;39307;52.870;13.660;2022-08-19T08:03:18;100374.44;;;22.57
53412;BMP280;39307;52.870;13.660;2022-08-19T08:05:45;100367.50;;;22.56
53412;BMP280;39307;52.870;13.660;2022-08-19T08:08:12;100363.75;;;22.61
53412;BMP280;39307;52.870;13.660;2022-08-19T08:10:39;100363.22;;;22.64
53412;BMP280;39307;52.870;13.660;2022-08-19T08:13:05;100366.94;;;22.73
53412;BMP280;39307;52.870;13.660;2022-08-19T08:15:32;100376.03;;;22.62
53412;BMP280;39307;52.870;13.660;2022-08-19T08:17:58;100376.56;;;22.55
53412;BMP280;39307;52.870;13.660;2022-08-19T08:20:24;100380.28;;;22.58
53412;BMP280;39307;52.870;13.660;2022-08-19T08:22:51;100372.28;;;22.58
53412;BMP280;39307;52.870;13.660;2022-08-19T08:25:21;100373.06;;;22.74
53412;BMP280;39307;52.870;13.660;2022-08-19T08:27:49;100370.94;;;22.86
53412;BMP280;39307;52.870;13.660;2022-08-19T08:30:20;100366.91;;;22.98
53412;BMP280;39307;52.870;13.660;2022-08-19T08:32:46;100375.47;;;23.00
53412;BMP280;39307;52.870;13.660;2022-08-19T08:35:15;100372.81;;;23.00
53412;BMP280;39307;52.870;13.660;2022-08-19T08:37:42;100381.56;;;23.10
53412;BMP280;39307;52.870;13.660;2022-08-19T08:43:23;100390.91;;;23.17
53412;BMP280;39307;52.870;13.660;2022-08-19T08:45:59;100392.97;;;23.40
53412;BMP280;39307;52.870;13.660;2022-08-19T08:48:44;100387.38;;;23.42
53412;BMP280;39307;52.870;13.660;2022-08-19T08:51:18;100382.78;;;23.57
53412;BMP280;39307;52.870;13.660;2022-08-19T08:53:47;100375.31;;;23.49
53412;BMP280;39307;52.870;13.660;2022-08-19T08:56:16;100379.31;;;23.56
53412;BMP280;39307;52.870;13.660;2022-08-19T08:59:03;100376.13;;;23.49
53412;BMP280;39307;52.870;13.660;2022-08-19T09:01:31;100381.75;;;23.53
53412;BMP280;39307;52.870;13.660;2022-08-19T09:03:57;100387.84;;;23.58
53412;BMP280;39307;52.870;13.660;2022-08-19T09:06:51;100392.13;;;23.59
53412;BMP280;39307;52.870;13.660;2022-08-19T09:09:48;100378.50;;;23.56
53412;BMP280;39307;52.870;13.660;2022-08-19T09:12:38;100382.97;;;23.70
53412;BMP280;39307;52.870;13.660;2022-08-19T09:15:10;100376.06;;;24.07
53412;BMP280;39307;52.870;13.660;2022-08-19T09:17:37;100377.88;;;24.54
53412;BMP280;39307;52.870;13.660;2022-08-19T09:22:41;100375.31;;;25.00
53412;BMP280;39307;52.870;13.660;2022-08-19T09:25:09;100382.78;;;25.03
53412;BMP280;39307;52.870;13.660;2022-08-19T09:27:38;100382.78;;;25.26
53412;BMP280;39307;52.870;13.660;2022-08-19T09:30:06;100379.47;;;25.34
53412;BMP280;39307;52.870;13.660;2022-08-19T09:32:33;100371.03;;;25.69
53412;BMP280;39307;52.870;13.660;2022-08-19T09:35:00;100355.09;;;25.95
53412;BMP280;39307;52.870;13.660;2022-08-19T09:37:27;100359.41;;;26.14
53412;BMP280;39307;52.870;13.660;2022-08-19T09:39:53;100356.97;;;26.31
53412;BMP280;39307;52.870;13.660;2022-08-19T09:42:20;100364.53;;;26.29
53412;BMP280;39307;52.870;13.660;2022-08-19T09:44:46;100354.16;;;26.41
53412;BMP280;39307;52.870;13.660;2022-08-19T09:47:13;100349.50;;;26.78
53412;BMP280;39307;52.870;13.660;2022-08-19T09:49:40;100359.78;;;26.71
53412;BMP280;39307;52.870;13.660;2022-08-19T09:52:10;100366.59;;;26.95
53412;BMP280;39307;52.870;13.660;2022-08-19T09:54:38;100379.34;;;27.16
53412;BMP280;39307;52.870;13.660;2022-08-19T09:57:05;100369.03;;;27.36
53412;BMP280;39307;52.870;13.660;2022-08-19T09:59:31;100361.97;;;27.54
53412;BMP280;39307;52.870;13.660;2022-08-19T10:01:57;100352.50;;;27.43
53412;BMP280;39307;52.870;13.660;2022-08-19T10:04:24;100344.97;;;27.80
53412;BMP280;39307;52.870;13.660;2022-08-19T10:06:50;100342.66;;;27.86
53412;BMP280;39307;52.870;13.660;2022-08-19T10:09:17;100351.03;;;27.85
53412;BMP280;39307;52.870;13.660;2022-08-19T10:11:45;100350.22;;;27.98
53412;BMP280;39307;52.870;13.660;2022-08-19T10:14:11;100367.41;;;27.75
53412;BMP280;39307;52.870;13.660;2022-08-19T10:16:37;100368.34;;;27.44
53412;BMP280;39307;52.870;13.660;2022-08-19T10:19:03;100378.69;;;27.37
53412;BMP280;39307;52.870;13.660;2022-08-19T10:21:31;100371.00;;;27.31
53412;BMP280;39307;52.870;13.660;2022-08-19T10:24:01;100366.28;;;27.41
53412;BMP280;39307;52.870;13.660;2022-08-19T10:26:31;100359.00;;;27.42
53412;BMP280;39307;52.870;13.660;2022-08-19T10:28:59;100360.56;;;27.56
53412;BMP280;39307;52.870;13.660;2022-08-19T10:31:28;100355.63;;;27.84
53412;BMP280;39307;52.870;13.660;2022-08-19T10:33:54;100348.31;;;27.98
53412;BMP280;39307;52.870;13.660;2022-08-19T10:36:23;100347.97;;;28.13
53412;BMP280;39307;52.870;13.660;2022-08-19T10:38:53;100343.03;;;28.50
53412;BMP280;39307;52.870;13.660;2022-08-19T10:41:22;100340.66;;;28.48
53412;BMP280;39307;52.870;13.660;2022-08-19T10:43:59;100329.19;;;28.65
53412;BMP280;39307;52.870;13.660;2022-08-19T10:46:27;100326.72;;;29.06
53412;BMP280;39307;52.870;13.660;2022-08-19T10:48:54;100319.88;;;29.56
53412;BMP280;39307;52.870;13.660;2022-08-19T10:51:21;100335.06;;;29.43
53412;BMP280;39307;52.870;13.660;2022-08-19T10:53:47;100320.28;;;29.24
53412;BMP280;39307;52.870;13.660;2022-08-19T10:56:14;100318.09;;;29.43
53412;BMP280;39307;52.870;13.660;2022-08-19T10:58:40;100321.78;;;29.55
53412;BMP280;39307;52.870;13.660;2022-08-19T11:01:07;100319.69;;;29.44
53412;BMP280;39307;52.870;13.660;2022-08-19T11:03:33;100321.13;;;29.41
53412;BMP280;39307;52.870;13.660;2022-08-19T11:06:06;100318.34;;;29.16
53412;BMP280;39307;52.870;13.660;2022-08-19T11:08:33;100315.19;;;29.23
53412;BMP280;39307;52.870;13.660;2022-08-19T11:11:01;100312.72;;;29.43
53412;BMP280;39307;52.870;13.660;2022-08-19T11:13:30;100313.31;;;29.31
53412;BMP280;39307;52.870;13.660;2022-08-19T11:16:05;100305.41;;;29.43
53412;BMP280;39307;52.870;13.660;2022-08-19T11:18:32;100310.69;;;29.57
53412;BMP280;39307;52.870;13.660;2022-08-19T11:21:20;100306.59;;;29.67
53412;BMP280;39307;52.870;13.660;2022-08-19T11:23:49;100310.16;;;29.46
53412;BMP280;39307;52.870;13.660;2022-08-19T11:26:16;100317.09;;;29.22
53412;BMP280;39307;52.870;13.660;2022-08-19T11:28:43;100314.06;;;29.15
53412;BMP280;39307;52.870;13.660;2022-08-19T11:31:15;100336.44;;;28.86
53412;BMP280;39307;52.870;13.660;2022-08-19T11:33:41;100327.66;;;28.72
53412;BMP280;39307;52.870;13.660;2022-08-19T11:36:08;100326.28;;;28.83
53412;BMP280;39307;52.870;13.660;2022-08-19T11:38:36;100323.31;;;28.93
53412;BMP280;39307;52.870;13.660;2022-08-19T11:41:05;100331.03;;;28.56
53412;BMP280;39307;52.870;13.660;2022-08-19T11:43:32;100329.56;;;28.50
53412;BMP280;39307;52.870;13.660;2022-08-19T11:45:59;100334.72;;;28.38
53412;BMP280;39307;52.870;13.660;2022-08-19T11:48:25;100330.75;;;28.36
53412;BMP280;39307;52.870;13.660;2022-08-19T11:50:53;100335.69;;;28.20
53412;BMP280;39307;52.870;13.660;2022-08-19T11:53:19;100336.84;;;28.28
53412;BMP280;39307;52.870;13.660;2022-08-19T11:55:46;100345.19;;;28.18
53412;BMP280;39307;52.870;13.660;2022-08-19T11:58:15;100351.00;;;28.12
53412;BMP280;39307;52.870;13.660;2022-08-19T12:00:42;100345.84;;;28.02
53412;BMP280;39307;52.870;13.660;2022-08-19T12:03:08;100353.97;;;27.75
53412;BMP280;39307;52.870;13.660;2022-08-19T12:05:37;100352.47;;;27.69
53412;BMP280;39307;52.870;13.660;2022-08-19T12:08:04;100361.53;;;27.73
53412;BMP280;39307;52.870;13.660;2022-08-19T12:10:30;100360.41;;;27.74
53412;BMP280;39307;52.870;13.660;2022-08-19T12:12:57;100359.75;;;27.69
53412;BMP280;39307;52.870;13.660;2022-08-19T12:15:23;100367.03;;;27.55
53412;BMP280;39307;52.870;13.660;2022-08-19T12:17:50;100363.84;;;27.53
53412;BMP280;39307;52.870;13.660;2022-08-19T12:20:16;100364.22;;;27.73
53412;BMP280;39307;52.870;13.660;2022-08-19T12:22:43;100372.19;;;27.65
53412;BMP280;39307;52.870;13.660;2022-08-19T12:25:11;100360.88;;;27.55
53412;BMP280;39307;52.870;13.660;2022-08-19T12:27:38;100366.06;;;27.51
53412;BMP280;39307;52.870;13.660;2022-08-19T12:30:06;100370.03;;;27.40
53412;BMP280;39307;52.870;13.660;2022-08-19T12:32:33;100376.22;;;27.54
53412;BMP280;39307;52.870;13.660;2022-08-19T12:35:00;100369.44;;;27.43
53412;BMP280;39307;52.870;13.660;2022-08-19T12:37:26;100377.38;;;27.22
53412;BMP280;39307;52.870;13.660;2022-08-19T12:39:53;100375.91;;;27.29
53412;BMP280;39307;52.870;13.660;2022-08-19T12:42:19;100372.03;;;27.48
53412;BMP280;39307;52.870;13.660;2022-08-19T12:44:45;100375.16;;;27.77
53412;BMP280;39307;52.870;13.660;2022-08-19T12:47:12;100385.31;;;27.80
53412;BMP280;39307;52.870;13.660;2022-08-19T12:49:40;100386.31;;;27.84
53412;BMP280;39307;52.870;13.660;2022-08-19T12:52:07;100395.50;;;27.69
53412;BMP280;39307;52.870;13.660;2022-08-19T12:54:36;100387.03;;;27.76
53412;BMP280;39307;52.870;13.660;2022-08-19T12:57:08;100378.13;;;27.88
53412;BMP280;39307;52.870;13.660;2022-08-19T12:59:36;100372.38;;;28.16
53412;BMP280;39307;52.870;13.660;2022-08-19T13:02:04;100371.31;;;28.39
53412;BMP280;39307;52.870;13.660;2022-08-19T13:04:30;100362.91;;;28.41
53412;BMP280;39307;52.870;13.660;2022-08-19T13:06:56;100371.13;;;28.36
53412;BMP280;39307;52.870;13.660;2022-08-19T13:09:23;100365.00;;;28.22
53412;BMP280;39307;52.870;13.660;2022-08-19T13:11:49;100365.22;;;28.12
53412;BMP280;39307;52.870;13.660;2022-08-19T13:14:15;100368.75;;;27.86
53412;BMP280;39307;52.870;13.660;2022-08-19T13:16:41;100366.94;;;27.60
53412;BMP280;39307;52.870;13.660;2022-08-19T13:19:08;100367.41;;;27.62
53412;BMP280;39307;52.870;13.660;2022-08-19T13:21:34;100366.16;;;27.59
53412;BMP280;39307;52.870;13.660;2022-08-19T13:24:00;100367.22;;;27.58
53412;BMP280;39307;52.870;13.660;2022-08-19T13:26:27;100369.53;;;27.52
53412;BMP280;39307;52.870;13.660;2022-08-19T13:28:53;100369.34;;;27.48
53412;BMP280;39307;52.870;13.660;2022-08-19T13:31:21;100365.75;;;27.39
53412;BMP280;39307;52.870;13.660;2022-08-19T13:33:47;100375.00;;;27.47
53412;BMP280;39307;52.870;13.660;2022-08-19T13:36:14;100376.69;;;27.29
53412;BMP280;39307;52.870;13.660;2022-08-19T13:38:40;100374.69;;;27.22
53412;BMP280;39307;52.870;13.660;2022-08-19T13:41:06;100384.44;;;27.18
53412;BMP280;39307;52.870;13.660;2022-08-19T13:43:33;100376.19;;;27.14
53412;BMP280;39307;52.870;13.660;2022-08-19T13:45:59;100379.75;;;26.97
53412;BMP280;39307;52.870;13.660;2022-08-19T13:48:25;100378.31;;;26.86
53412;BMP280;39307;52.870;13.660;2022-08-19T13:50:52;100375.38;;;26.87
53412;BMP280;39307;52.870;13.660;2022-08-19T13:53:18;100365.59;;;26.91
53412;BMP280;39307;52.870;13.660;2022-08-19T13:55:44;100377.75;;;26.89